createdAt,value
2017-12-11T00:01:22.524Z,40.40
2017-12-11T00:03:51.568Z,40.26
2017-12-11T00:06:20.149Z,40.28
2017-12-11T00:08:48.819Z,40.36
2017-12-11T00:11:17.484Z,40.38
2017-12-11T00:13:46.288Z,40.45
2017-12-11T00:16:17.414Z,40.45
2017-12-11T00:18:46.129Z,40.44
2017-12-11T00:21:14.906Z,40.44
2017-12-11T00:23:43.427Z,40.34
2017-12-11T00:26:12.058Z,40.34
2017-12-11T00:28:40.867Z,40.47
2017-12-11T00:31:09.443Z,40.55
2017-12-11T00:33:38.053Z,40.49
2017-12-11T00:36:06.781Z,40.55
2017-12-11T00:38:35.455Z,40.47
2017-12-11T00:41:04.311Z,40.58
2017-12-11T00:43:32.960Z,40.62
2017-12-11T00:46:01.680Z,40.58
2017-12-11T00:48:30.331Z,40.59
2017-12-11T00:50:58.911Z,40.57
2017-12-11T00:53:27.707Z,40.59
2017-12-11T00:55:56.320Z,40.60
2017-12-11T00:58:25.076Z,40.66
2017-12-11T01:00:53.985Z,40.66
2017-12-11T01:03:22.865Z,40.70
2017-12-11T01:05:51.584Z,40.72
2017-12-11T01:08:20.300Z,40.70
2017-12-11T01:10:49.073Z,40.76
2017-12-11T01:13:17.849Z,40.84
2017-12-11T01:15:46.596Z,40.89
2017-12-11T01:18:15.394Z,40.86
2017-12-11T01:20:44.100Z,40.85
2017-12-11T01:23:12.785Z,40.92
2017-12-11T01:25:41.699Z,40.96
2017-12-11T01:28:10.531Z,41.04
2017-12-11T01:30:39.096Z,41.00
2017-12-11T01:33:07.904Z,41.03
2017-12-11T01:35:36.612Z,41.07
2017-12-11T01:38:05.491Z,41.15
2017-12-11T01:40:34.031Z,41.14
2017-12-11T01:43:02.856Z,41.16
2017-12-11T01:45:31.578Z,41.12
2017-12-11T01:48:00.508Z,41.13
2017-12-11T01:50:29.028Z,41.24
2017-12-11T01:52:57.646Z,41.25
2017-12-11T01:55:26.540Z,41.25
2017-12-11T01:57:55.212Z,41.31
2017-12-11T02:00:23.936Z,41.32
2017-12-11T02:02:52.765Z,41.37
2017-12-11T02:05:21.303Z,41.41
2017-12-11T02:07:50.136Z,41.45
2017-12-11T02:10:18.848Z,41.40
2017-12-11T02:12:47.585Z,41.42
2017-12-11T02:15:16.284Z,41.39
2017-12-11T02:17:44.903Z,41.41
2017-12-11T02:20:13.840Z,41.46
2017-12-11T02:22:42.654Z,41.49
2017-12-11T02:25:11.348Z,41.53
2017-12-11T02:27:40.144Z,41.54
2017-12-11T02:30:09.070Z,41.50
2017-12-11T02:32:37.799Z,41.52
2017-12-11T02:35:06.527Z,41.58
2017-12-11T02:37:35.224Z,41.58
2017-12-11T02:40:04.105Z,41.59
2017-12-11T02:42:32.949Z,41.57
2017-12-11T02:45:01.541Z,41.58
2017-12-11T02:47:30.166Z,41.55
2017-12-11T02:49:58.892Z,41.65
2017-12-11T02:52:27.735Z,41.63
2017-12-11T02:54:56.380Z,41.66
2017-12-11T02:57:24.952Z,41.70
2017-12-11T02:59:53.563Z,41.70
2017-12-11T03:02:22.081Z,41.72
2017-12-11T03:04:50.747Z,41.74
2017-12-11T03:07:19.488Z,41.72
2017-12-11T03:09:48.096Z,41.77
2017-12-11T03:12:16.812Z,41.75
2017-12-11T03:14:45.740Z,41.77
2017-12-11T03:17:14.408Z,41.86
2017-12-11T03:19:43.044Z,41.84
2017-12-11T03:22:11.591Z,41.67
2017-12-11T03:24:40.237Z,41.61
2017-12-11T03:27:08.956Z,41.61
2017-12-11T03:29:37.610Z,41.61
2017-12-11T03:32:06.503Z,41.53
2017-12-11T03:34:35.364Z,41.50
2017-12-11T03:37:04.060Z,41.50
2017-12-11T03:39:32.936Z,41.52
2017-12-11T03:42:01.649Z,41.45
2017-12-11T03:44:30.344Z,41.43
2017-12-11T03:46:59.216Z,41.45
2017-12-11T03:49:27.897Z,41.42
2017-12-11T03:51:56.801Z,41.45
2017-12-11T03:54:25.643Z,41.42
2017-12-11T03:56:54.152Z,41.42
2017-12-11T03:59:23.034Z,41.39
2017-12-11T04:01:51.565Z,41.32
2017-12-11T04:04:20.393Z,41.35
2017-12-11T04:06:49.000Z,41.53
2017-12-11T04:09:17.604Z,41.46
2017-12-11T04:11:46.311Z,41.47
2017-12-11T04:14:14.935Z,41.46
2017-12-11T04:16:43.484Z,41.49
2017-12-11T04:19:12.292Z,41.48
2017-12-11T04:21:41.203Z,41.32
2017-12-11T04:24:09.884Z,41.24
2017-12-11T04:26:38.428Z,41.23
2017-12-11T04:29:07.043Z,41.20
2017-12-11T04:31:35.619Z,41.16
2017-12-11T04:34:04.432Z,41.10
2017-12-11T04:36:33.128Z,41.03
2017-12-11T04:39:01.824Z,41.01
2017-12-11T04:41:30.725Z,41.01
2017-12-11T04:43:59.587Z,40.79
2017-12-11T04:46:28.106Z,40.85
2017-12-11T04:48:56.765Z,40.82
2017-12-11T04:51:25.326Z,40.75
2017-12-11T04:53:54.100Z,40.75
2017-12-11T04:56:22.604Z,40.69
2017-12-11T04:58:51.474Z,40.61
2017-12-11T05:04:15.558Z,40.79
2017-12-11T05:06:44.114Z,40.67
2017-12-11T05:09:12.597Z,40.56
2017-12-11T05:11:41.169Z,40.56
2017-12-11T05:14:09.634Z,40.56
2017-12-11T05:16:38.140Z,40.53
2017-12-11T05:19:06.630Z,40.47
2017-12-11T05:21:35.226Z,40.43
2017-12-11T05:24:03.709Z,40.41
2017-12-11T05:26:32.219Z,40.34
2017-12-11T05:29:00.962Z,40.36
2017-12-11T05:31:29.485Z,40.34
2017-12-11T05:33:58.005Z,40.28
2017-12-11T05:36:26.505Z,40.41
2017-12-11T05:38:54.999Z,40.31
2017-12-11T05:41:23.570Z,40.26
2017-12-11T05:43:52.066Z,40.28
2017-12-11T05:46:20.745Z,40.21
2017-12-11T05:48:49.222Z,40.24
2017-12-11T05:51:17.908Z,40.36
2017-12-11T05:53:46.544Z,41.16
2017-12-11T05:56:15.591Z,41.40
2017-12-11T05:58:44.076Z,41.66
2017-12-11T06:01:12.897Z,41.79
2017-12-11T06:03:41.476Z,42.05
2017-12-11T06:06:10.005Z,42.24
2017-12-11T06:08:38.456Z,42.60
2017-12-11T06:11:06.954Z,43.09
2017-12-11T06:13:35.484Z,42.85
2017-12-11T06:16:04.094Z,42.73
2017-12-11T06:18:32.530Z,42.62
2017-12-11T06:21:01.638Z,42.78
2017-12-11T06:23:30.108Z,42.68
2017-12-11T06:25:58.634Z,42.58
2017-12-11T06:28:27.093Z,42.63
2017-12-11T06:30:55.606Z,42.64
2017-12-11T06:33:24.049Z,42.66
2017-12-11T06:35:52.561Z,42.67
2017-12-11T06:38:21.008Z,42.64
2017-12-11T06:40:49.527Z,42.64
2017-12-11T06:43:18.016Z,42.62
2017-12-11T06:45:46.720Z,42.60
2017-12-11T06:48:15.149Z,42.55
2017-12-11T06:50:43.694Z,42.87
2017-12-11T06:53:12.804Z,42.95
2017-12-11T06:55:41.325Z,42.92
2017-12-11T06:58:09.904Z,42.87
2017-12-11T07:00:38.390Z,42.84
2017-12-11T07:03:06.841Z,42.74
2017-12-11T07:05:35.604Z,42.72
2017-12-11T07:08:04.476Z,42.59
2017-12-11T07:10:32.989Z,42.53
2017-12-11T07:13:01.442Z,42.50
2017-12-11T07:15:29.937Z,42.47
2017-12-11T07:17:58.416Z,42.43
2017-12-11T07:20:26.917Z,42.37
2017-12-11T07:22:55.556Z,42.38
2017-12-11T07:25:24.079Z,42.36
2017-12-11T07:27:52.750Z,42.35
2017-12-11T07:30:21.450Z,42.30
2017-12-11T07:32:50.228Z,42.23
2017-12-11T07:35:18.737Z,42.25
2017-12-11T07:37:47.369Z,42.25
2017-12-11T07:40:15.828Z,42.23
2017-12-11T07:42:44.605Z,42.20
2017-12-11T07:45:13.167Z,42.17
2017-12-11T07:47:41.625Z,42.15
2017-12-11T07:50:10.345Z,42.11
2017-12-11T07:52:38.949Z,42.09
2017-12-11T07:55:07.462Z,42.07
2017-12-11T07:57:35.942Z,42.08
2017-12-11T08:00:04.453Z,42.10
2017-12-11T08:02:32.947Z,42.10
2017-12-11T08:05:01.410Z,42.06
2017-12-11T08:07:29.941Z,42.05
2017-12-11T08:09:58.373Z,42.15
2017-12-11T08:12:26.924Z,41.94
2017-12-11T08:14:55.412Z,41.56
2017-12-11T08:17:23.935Z,41.44
2017-12-11T08:19:52.543Z,41.36
2017-12-11T08:22:21.210Z,41.26
2017-12-11T08:24:49.681Z,40.94
2017-12-11T08:27:18.196Z,40.50
2017-12-11T08:29:46.658Z,40.28
2017-12-11T08:32:15.198Z,39.99
2017-12-11T08:34:43.785Z,39.90
2017-12-11T08:37:12.458Z,39.56
2017-12-11T08:39:40.891Z,39.29
2017-12-11T08:42:09.620Z,38.78
2017-12-11T08:44:38.095Z,38.42
2017-12-11T08:47:06.799Z,38.01
2017-12-11T08:49:35.465Z,37.98
2017-12-11T08:52:04.001Z,37.48
2017-12-11T08:54:32.618Z,37.06
2017-12-11T08:57:01.162Z,36.98
2017-12-11T08:59:29.806Z,36.85
2017-12-11T09:01:58.269Z,36.80
2017-12-11T09:04:26.771Z,37.21
2017-12-11T09:06:55.250Z,37.52
2017-12-11T09:09:24.225Z,39.37
2017-12-11T09:11:53.154Z,40.01
2017-12-11T09:14:21.664Z,40.55
2017-12-11T09:16:50.239Z,40.78
2017-12-11T09:19:18.921Z,40.85
2017-12-11T09:21:47.816Z,40.68
2017-12-11T09:24:16.292Z,40.48
2017-12-11T09:26:45.183Z,40.06
2017-12-11T09:29:13.640Z,39.81
2017-12-11T09:31:42.348Z,39.75
2017-12-11T09:34:10.819Z,39.63
2017-12-11T09:36:39.312Z,39.55
2017-12-11T09:39:07.958Z,39.58
2017-12-11T09:41:36.667Z,40.08
2017-12-11T09:44:05.521Z,40.39
2017-12-11T09:46:34.562Z,40.51
2017-12-11T09:49:03.834Z,40.42
2017-12-11T09:51:32.338Z,40.18
2017-12-11T09:54:00.977Z,40.08
2017-12-11T09:56:29.590Z,39.95
2017-12-11T09:58:58.283Z,40.22
2017-12-11T10:01:26.962Z,39.90
2017-12-11T10:03:55.663Z,39.78
2017-12-11T10:06:24.350Z,39.44
2017-12-11T10:08:52.978Z,39.33
2017-12-11T10:11:21.952Z,39.42
2017-12-11T10:13:51.751Z,39.46
2017-12-11T10:16:20.757Z,39.27
2017-12-11T10:18:50.171Z,39.32
2017-12-11T10:21:19.214Z,39.25
2017-12-11T10:23:48.102Z,39.29
2017-12-11T10:26:16.624Z,39.27
2017-12-11T10:28:45.063Z,39.35
2017-12-11T10:31:13.981Z,39.35
2017-12-11T10:33:42.426Z,39.53
2017-12-11T10:36:10.982Z,39.54
2017-12-11T10:38:39.524Z,39.50
2017-12-11T10:41:08.767Z,39.63
2017-12-11T10:43:37.510Z,39.52
2017-12-11T10:46:06.083Z,39.66
2017-12-11T10:48:34.549Z,39.78
2017-12-11T10:51:03.095Z,39.65
2017-12-11T10:53:31.689Z,39.56
2017-12-11T10:56:00.167Z,39.77
2017-12-11T10:58:28.733Z,39.84
2017-12-11T11:00:57.233Z,39.78
2017-12-11T11:03:25.810Z,39.90
2017-12-11T11:05:54.298Z,39.76
2017-12-11T11:08:22.993Z,39.81
2017-12-11T11:10:51.475Z,39.76
2017-12-11T11:13:19.944Z,39.83
2017-12-11T11:15:48.427Z,39.97
2017-12-11T11:18:16.917Z,40.06
2017-12-11T11:20:45.426Z,39.79
2017-12-11T11:23:13.985Z,39.58
2017-12-11T11:25:42.506Z,39.53
2017-12-11T11:28:11.018Z,39.53
2017-12-11T11:30:39.537Z,39.55
2017-12-11T11:33:08.201Z,39.66
2017-12-11T11:35:36.686Z,39.78
2017-12-11T11:38:05.354Z,39.83
2017-12-11T11:40:33.856Z,39.82
2017-12-11T11:43:02.322Z,39.94
2017-12-11T11:45:30.833Z,39.99
2017-12-11T11:47:59.308Z,40.01
2017-12-11T11:50:28.006Z,40.04
2017-12-11T11:52:56.501Z,40.10
2017-12-11T11:55:25.179Z,40.13
2017-12-11T11:57:53.869Z,40.21
2017-12-11T12:00:22.592Z,40.24
2017-12-11T12:02:51.081Z,40.27
2017-12-11T12:05:19.700Z,40.27
2017-12-11T12:07:48.164Z,40.40
2017-12-11T12:10:16.667Z,40.40
2017-12-11T12:12:47.069Z,40.36
2017-12-11T12:15:15.585Z,40.40
2017-12-11T12:17:44.041Z,40.45
2017-12-11T12:20:12.641Z,40.44
2017-12-11T12:22:41.238Z,40.44
2017-12-11T12:25:09.733Z,40.51
2017-12-11T12:27:38.208Z,40.52
2017-12-11T12:30:06.768Z,40.67
2017-12-11T12:32:35.222Z,40.57
2017-12-11T12:35:03.677Z,40.62
2017-12-11T12:37:32.148Z,40.58
2017-12-11T12:40:00.664Z,40.63
2017-12-11T12:42:29.568Z,40.65
2017-12-11T12:44:58.016Z,40.66
2017-12-11T12:47:26.549Z,40.66
2017-12-11T12:49:55.056Z,40.69
2017-12-11T12:52:23.693Z,40.68
2017-12-11T12:54:52.143Z,40.72
2017-12-11T12:57:20.666Z,40.70
2017-12-11T12:59:49.120Z,40.75
2017-12-11T13:02:17.634Z,40.62
2017-12-11T13:04:46.192Z,40.28
2017-12-11T13:07:14.794Z,40.37
2017-12-11T13:09:44.472Z,40.62
2017-12-11T13:12:12.981Z,40.71
2017-12-11T13:14:41.641Z,40.83
2017-12-11T13:17:10.681Z,41.04
2017-12-11T13:19:39.217Z,41.84
2017-12-11T13:22:07.665Z,42.38
2017-12-11T13:24:36.160Z,42.42
2017-12-11T13:27:04.633Z,42.55
2017-12-11T13:29:33.341Z,42.43
2017-12-11T13:32:02.052Z,42.22
2017-12-11T13:34:30.725Z,42.14
2017-12-11T13:36:59.545Z,42.10
2017-12-11T13:39:28.310Z,42.18
2017-12-11T13:41:56.809Z,41.93
2017-12-11T13:44:25.473Z,41.87
2017-12-11T13:46:54.174Z,41.53
2017-12-11T13:49:22.731Z,41.51
2017-12-11T13:51:51.547Z,41.27
2017-12-11T13:54:20.446Z,41.40
2017-12-11T13:56:48.910Z,41.51
2017-12-11T13:59:18.286Z,41.49
2017-12-11T14:01:47.372Z,41.66
2017-12-11T14:04:15.831Z,41.81
2017-12-11T14:06:44.307Z,41.36
2017-12-11T14:09:12.766Z,41.11
2017-12-11T14:11:41.254Z,41.20
2017-12-11T14:14:10.289Z,40.94
2017-12-11T14:16:39.517Z,40.79
2017-12-11T14:19:08.280Z,40.77
2017-12-11T14:21:36.826Z,40.63
2017-12-11T14:24:05.645Z,40.64
2017-12-11T14:26:34.118Z,40.73
2017-12-11T14:29:02.800Z,40.57
2017-12-11T14:31:31.255Z,40.58
2017-12-11T14:34:00.074Z,40.63
2017-12-11T14:36:29.408Z,40.55
2017-12-11T14:38:57.996Z,40.56
2017-12-11T14:41:28.720Z,40.50
2017-12-11T14:43:58.044Z,40.51
2017-12-11T14:46:30.243Z,40.51
2017-12-11T14:49:00.205Z,40.46
2017-12-11T14:51:29.033Z,40.49
2017-12-11T14:53:58.280Z,40.66
2017-12-11T14:56:27.716Z,40.68
2017-12-11T14:58:56.635Z,40.67
2017-12-11T15:01:25.540Z,40.70
2017-12-11T15:03:54.556Z,40.91
2017-12-11T15:06:23.086Z,40.86
2017-12-11T15:08:51.575Z,40.79
2017-12-11T15:11:20.444Z,40.76
2017-12-11T15:13:49.101Z,40.76
2017-12-11T15:16:17.929Z,40.75
2017-12-11T15:18:46.713Z,40.75
2017-12-11T15:21:15.310Z,40.83
2017-12-11T15:23:43.845Z,40.75
2017-12-11T15:26:12.351Z,40.86
2017-12-11T15:28:40.831Z,40.97
2017-12-11T15:31:09.526Z,41.16
2017-12-11T15:33:38.008Z,40.97
2017-12-11T15:36:07.710Z,40.95
2017-12-11T15:38:37.290Z,40.99
2017-12-11T15:41:10.423Z,41.08
2017-12-11T15:43:43.027Z,41.07
2017-12-11T15:46:13.586Z,41.08
2017-12-11T15:48:43.343Z,41.02
2017-12-11T15:51:13.622Z,41.05
2017-12-11T15:53:42.188Z,41.05
2017-12-11T15:56:11.278Z,40.98
2017-12-11T15:58:41.302Z,41.12
2017-12-11T16:01:10.667Z,41.12
2017-12-11T16:03:39.271Z,41.11
2017-12-11T16:06:07.870Z,41.10
2017-12-11T16:08:36.352Z,41.11
2017-12-11T16:11:06.858Z,41.20
2017-12-11T16:13:36.266Z,41.13
2017-12-11T16:16:05.013Z,41.18
2017-12-11T16:18:34.078Z,41.11
2017-12-11T16:21:02.804Z,41.18
2017-12-11T16:23:32.124Z,41.22
2017-12-11T16:26:04.486Z,41.25
2017-12-11T16:28:34.192Z,41.27
2017-12-11T16:31:02.701Z,41.29
2017-12-11T16:33:31.342Z,41.35
2017-12-11T16:35:59.832Z,41.46
2017-12-11T16:38:28.486Z,41.50
2017-12-11T16:40:56.981Z,41.38
2017-12-11T16:43:25.645Z,41.45
2017-12-11T16:45:54.157Z,41.49
2017-12-11T16:48:22.797Z,41.48
2017-12-11T16:50:51.309Z,41.51
2017-12-11T16:53:19.961Z,41.54
2017-12-11T16:55:48.435Z,41.56
2017-12-11T16:58:19.932Z,41.62
2017-12-11T17:00:49.569Z,41.64
2017-12-11T17:03:18.770Z,41.68
2017-12-11T17:05:47.321Z,41.71
2017-12-11T17:08:16.290Z,41.72
2017-12-11T17:10:44.902Z,41.74
2017-12-11T17:13:13.561Z,41.74
2017-12-11T17:15:42.216Z,41.71
2017-12-11T17:18:12.292Z,41.84
2017-12-11T17:20:43.706Z,41.81
2017-12-11T17:23:14.154Z,41.83
2017-12-11T17:25:45.198Z,41.82
2017-12-11T17:28:14.362Z,41.81
2017-12-11T17:30:42.841Z,41.90
2017-12-11T17:33:11.318Z,41.78
2017-12-11T17:35:40.460Z,41.77
2017-12-11T17:38:09.128Z,41.80
2017-12-11T17:40:37.611Z,41.80
2017-12-11T17:43:06.308Z,41.78
2017-12-11T17:45:34.795Z,41.76
2017-12-11T17:48:04.620Z,41.71
2017-12-11T17:50:33.119Z,41.90
2017-12-11T17:53:01.578Z,41.79
2017-12-11T17:55:30.245Z,41.81
2017-12-11T17:57:58.771Z,41.84
2017-12-11T18:00:34.194Z,41.79
2017-12-11T18:03:02.865Z,41.83
2017-12-11T18:05:31.562Z,41.88
2017-12-11T18:08:00.207Z,41.87
2017-12-11T18:10:28.701Z,41.80
2017-12-11T18:12:57.769Z,41.93
2017-12-11T18:15:26.250Z,41.89
2017-12-11T18:17:54.683Z,41.85
2017-12-11T18:20:26.505Z,41.93
2017-12-11T18:22:56.726Z,41.93
2017-12-11T18:25:25.574Z,42.06
2017-12-11T18:27:56.047Z,41.93
2017-12-11T18:30:24.797Z,41.92
2017-12-11T18:32:56.401Z,41.91
2017-12-11T18:35:27.609Z,41.97
2017-12-11T18:37:56.106Z,42.06
2017-12-11T18:40:24.880Z,42.14
2017-12-11T18:42:53.371Z,42.12
2017-12-11T18:45:24.288Z,42.09
2017-12-11T18:47:56.476Z,42.00
2017-12-11T18:50:25.957Z,41.98
2017-12-11T18:52:54.489Z,42.07
2017-12-11T18:55:23.555Z,41.99
2017-12-11T18:57:52.543Z,41.98
2017-12-11T19:00:21.347Z,42.05
2017-12-11T19:02:50.673Z,41.99
2017-12-11T19:05:19.462Z,42.01
2017-12-11T19:07:48.110Z,42.04
2017-12-11T19:10:17.322Z,41.95
2017-12-11T19:12:47.145Z,41.98
2017-12-11T19:15:19.723Z,41.93
2017-12-11T19:17:49.548Z,41.97
2017-12-11T19:20:18.164Z,42.02
2017-12-11T19:22:46.838Z,42.00
2017-12-11T19:25:15.412Z,41.96
2017-12-11T19:27:43.901Z,41.93
2017-12-11T19:30:13.220Z,41.87
2017-12-11T19:32:41.846Z,41.87
2017-12-11T19:35:10.591Z,41.87
2017-12-11T19:37:39.107Z,41.90
2017-12-11T19:40:07.646Z,41.94
2017-12-11T19:42:36.163Z,41.87
2017-12-11T19:45:05.201Z,41.79
2017-12-11T19:47:33.681Z,41.76
2017-12-11T19:50:02.128Z,41.85
2017-12-11T19:52:30.740Z,41.78
2017-12-11T19:54:59.177Z,41.77
2017-12-11T19:57:27.969Z,41.88
2017-12-11T19:59:58.497Z,41.88
2017-12-11T20:02:31.058Z,41.88
2017-12-11T20:05:02.301Z,41.85
2017-12-11T20:07:31.265Z,41.82
2017-12-11T20:09:59.738Z,41.83
2017-12-11T20:12:28.400Z,41.83
2017-12-11T20:14:58.970Z,41.84
2017-12-11T20:17:28.073Z,41.88
2017-12-11T20:19:56.512Z,41.81
2017-12-11T20:22:25.071Z,41.96
2017-12-11T20:24:53.658Z,41.89
2017-12-11T20:27:22.157Z,41.83
2017-12-11T20:29:50.833Z,41.90
2017-12-11T20:32:19.356Z,42.22
2017-12-11T20:34:48.024Z,41.71
2017-12-11T20:37:16.716Z,41.08
2017-12-11T20:39:45.261Z,40.72
2017-12-11T20:42:13.860Z,40.31
2017-12-11T20:44:42.849Z,40.29
2017-12-11T20:47:11.500Z,39.85
2017-12-11T20:49:39.948Z,39.69
2017-12-11T20:52:08.602Z,39.33
2017-12-11T20:54:37.141Z,39.36
2017-12-11T20:57:05.714Z,39.31
2017-12-11T20:59:34.316Z,38.95
2017-12-11T21:02:03.753Z,38.72
2017-12-11T21:04:32.236Z,38.99
2017-12-11T21:07:00.718Z,38.95
2017-12-11T21:09:29.272Z,38.90
2017-12-11T21:11:57.993Z,39.25
2017-12-11T21:14:26.444Z,39.11
2017-12-11T21:16:54.993Z,39.48
2017-12-11T21:19:23.474Z,39.75
2017-12-11T21:21:51.969Z,39.65
2017-12-11T21:24:20.494Z,39.76
2017-12-11T21:26:48.977Z,40.02
2017-12-11T21:29:17.561Z,40.19
2017-12-11T21:31:46.180Z,40.15
2017-12-11T21:34:14.747Z,40.33
2017-12-11T21:36:43.433Z,40.28
2017-12-11T21:39:12.010Z,40.61
2017-12-11T21:41:43.538Z,40.60
2017-12-11T21:44:13.301Z,40.45
2017-12-11T21:46:42.238Z,39.91
2017-12-11T21:49:13.120Z,39.75
2017-12-11T21:51:42.830Z,39.69
2017-12-11T21:54:11.497Z,39.80
2017-12-11T21:56:40.841Z,39.62
2017-12-11T21:59:09.629Z,39.57
2017-12-11T22:01:38.132Z,39.61
2017-12-11T22:04:06.823Z,39.64
2017-12-11T22:06:35.338Z,39.58
2017-12-11T22:09:07.842Z,39.49
2017-12-11T22:11:37.025Z,39.55
2017-12-11T22:14:05.702Z,39.59
2017-12-11T22:16:34.390Z,39.59
2017-12-11T22:19:02.941Z,39.56
2017-12-11T22:21:31.547Z,39.60
2017-12-11T22:24:00.218Z,39.63
2017-12-11T22:26:28.753Z,39.65
2017-12-11T22:29:00.072Z,39.68
2017-12-11T22:31:28.944Z,39.63
2017-12-11T22:33:57.485Z,39.77
2017-12-11T22:36:26.506Z,39.73
2017-12-11T22:38:55.090Z,39.66
2017-12-11T22:41:25.363Z,39.64
2017-12-11T22:43:54.214Z,39.61
2017-12-11T22:46:23.332Z,39.55
2017-12-11T22:48:51.995Z,39.59
2017-12-11T22:51:20.555Z,39.68
2017-12-11T22:53:49.065Z,39.66
2017-12-11T22:56:17.597Z,39.72
2017-12-11T22:58:46.205Z,39.65
2017-12-11T23:01:14.817Z,39.77
2017-12-11T23:03:43.321Z,39.72
2017-12-11T23:06:11.996Z,39.83
2017-12-11T23:08:40.918Z,39.90
2017-12-11T23:11:09.434Z,39.88
2017-12-11T23:13:38.022Z,40.02
2017-12-11T23:16:06.626Z,40.02
2017-12-11T23:18:35.150Z,39.87
2017-12-11T23:21:03.612Z,39.92
2017-12-11T23:23:32.101Z,39.90
2017-12-11T23:26:00.612Z,39.95
2017-12-11T23:28:29.342Z,40.07
2017-12-11T23:30:58.009Z,40.02
2017-12-11T23:33:26.592Z,40.02
2017-12-11T23:35:55.218Z,40.05
2017-12-11T23:38:23.862Z,40.02
2017-12-11T23:40:52.367Z,40.00
2017-12-11T23:43:20.932Z,40.04
2017-12-11T23:46:51.940Z,40.12
2017-12-11T23:49:20.425Z,40.07
2017-12-11T23:51:48.922Z,40.16
2017-12-11T23:54:26.263Z,40.19
2017-12-11T23:56:54.772Z,40.27
2017-12-11T23:59:23.355Z,40.25
